Time;durP1;ratioP1;P1;durP2;ratioP2;P2;SDS_P1;SDS_P2;PMS_P1;PMS_P2;Temp;Humidity;BMP_temperature;BMP_pressure;BME280_temperature;BME280_humidity;BME280_pressure;Samples;Min_cycle;Max_cycle;Signal;HPM_P1;HPM_P2
2023/04/18 00:02:17;;;;;;;21.92;14.45;;;;;;;7.77;99.69;102562.59;4991894;28;20029;-73
2023/04/18 00:04:46;;;;;;;17.98;13.18;;;;;;;7.70;99.96;102557.28;4990985;28;20537;-73
2023/04/18 00:07:13;;;;;;;18.58;13.45;;;;;;;7.71;99.91;102558.16;4992106;28;20010;-73
2023/04/18 00:09:39;;;;;;;17.48;13.35;;;;;;;7.66;99.91;102544.25;4988432;28;20106;-73
2023/04/18 00:12:05;;;;;;;21.73;13.90;;;;;;;7.68;100.00;102553.81;4989424;28;20466;-73
2023/04/18 00:14:32;;;;;;;20.30;13.82;;;;;;;7.64;100.00;102554.59;4989960;28;20401;-73
2023/04/18 00:16:58;;;;;;;17.65;13.13;;;;;;;7.66;100.00;102555.50;4990815;28;20033;-72
2023/04/18 00:19:23;;;;;;;20.02;13.18;;;;;;;7.60;100.00;102554.53;4990673;28;20031;-72
2023/04/18 00:21:48;;;;;;;18.45;13.15;;;;;;;7.60;100.00;102552.81;4990077;28;20448;-73
2023/04/18 00:24:14;;;;;;;16.77;13.00;;;;;;;7.57;100.00;102560.53;4989182;28;20064;-73
2023/04/18 00:26:39;;;;;;;20.27;13.00;;;;;;;7.57;100.00;102552.75;4992427;28;20427;-73
2023/04/18 00:29:04;;;;;;;18.85;13.35;;;;;;;7.40;100.00;102523.06;4991447;28;20026;-73
2023/04/18 00:31:30;;;;;;;21.25;13.50;;;;;;;7.45;100.00;102548.22;4990013;28;20022;-73
2023/04/18 00:33:55;;;;;;;18.13;13.10;;;;;;;7.42;100.00;102549.88;4989140;28;20030;-73
2023/04/18 00:36:21;;;;;;;21.38;13.70;;;;;;;7.38;100.00;102553.28;4989547;28;20109;-73
2023/04/18 00:38:46;;;;;;;18.35;13.45;;;;;;;7.34;100.00;102556.69;4990127;28;20034;-73
2023/04/18 00:41:11;;;;;;;19.33;13.25;;;;;;;7.28;100.00;102547.94;4991453;28;20019;-73
2023/04/18 00:43:37;;;;;;;18.83;13.77;;;;;;;7.29;100.00;102556.59;4991328;28;20046;-73
2023/04/18 00:46:02;;;;;;;18.58;13.68;;;;;;;7.26;100.00;102549.66;4990552;28;20033;-73
2023/04/18 00:48:28;;;;;;;19.13;13.70;;;;;;;7.14;100.00;102543.38;4991113;28;20033;-73
2023/04/18 00:50:54;;;;;;;20.98;14.35;;;;;;;7.13;100.00;102545.09;4991158;28;20027;-73
2023/04/18 00:53:20;;;;;;;23.70;14.95;;;;;;;7.05;100.00;102531.09;4990083;28;20037;-73
2023/04/18 00:55:46;;;;;;;22.50;14.55;;;;;;;7.13;100.00;102545.09;4990695;28;20101;-73
2023/04/18 00:58:11;;;;;;;22.70;14.85;;;;;;;7.10;100.00;102537.25;4990800;28;20019;-73
2023/04/18 01:00:36;;;;;;;21.33;14.63;;;;;;;7.07;100.00;102546.72;4989362;28;20114;-73
2023/04/18 01:03:02;;;;;;;20.58;14.45;;;;;;;7.03;100.00;102540.59;4990717;28;20125;-73
2023/04/18 01:05:27;;;;;;;22.88;13.93;;;;;;;6.96;100.00;102533.53;4991130;28;20022;-73
2023/04/18 01:07:57;;;;;;;27.38;14.85;;;;;;;7.03;100.00;102538.88;4990282;28;20033;-73
2023/04/18 01:10:22;;;;;;;23.80;14.57;;;;;;;7.07;99.50;102552.75;4990932;28;20030;-73
2023/04/18 01:12:48;;;;;;;19.35;13.93;;;;;;;7.03;98.74;102549.25;4989935;28;20559;-73
2023/04/18 01:15:13;;;;;;;21.92;13.43;;;;;;;6.95;97.58;102540.44;4990761;28;20033;-73
2023/04/18 01:17:38;;;;;;;17.73;13.35;;;;;;;6.99;97.04;102539.63;4990599;28;20052;-72
2023/04/18 01:20:05;;;;;;;20.27;14.30;;;;;;;7.02;96.37;102544.88;4989708;28;20034;-73
2023/04/18 01:22:31;;;;;;;18.90;13.10;;;;;;;7.00;94.41;102535.34;4990963;28;20369;-73
2023/04/18 01:24:57;;;;;;;19.73;13.43;;;;;;;6.98;94.18;102547.41;4991130;28;20428;-73
2023/04/18 01:27:22;;;;;;;17.17;12.60;;;;;;;6.97;92.87;102541.34;4990025;28;20454;-72
2023/04/18 01:29:48;;;;;;;21.48;13.82;;;;;;;6.94;92.04;102540.41;4990449;28;20034;-73
2023/04/18 01:32:13;;;;;;;18.52;13.48;;;;;;;6.93;91.44;102543.84;4990355;28;20026;-73
2023/04/18 01:34:39;;;;;;;21.17;13.45;;;;;;;6.81;91.21;102523.75;4989916;28;20026;-73
2023/04/18 01:37:04;;;;;;;18.10;12.20;;;;;;;6.85;91.77;102527.28;4990127;28;20019;-73
2023/04/18 01:39:30;;;;;;;17.83;13.30;;;;;;;6.79;92.05;102530.63;4988968;28;20037;-72
2023/04/18 01:41:55;;;;;;;19.20;12.13;;;;;;;6.77;91.91;102519.38;4986722;28;20036;-73
2023/04/18 01:44:20;;;;;;;21.05;13.40;;;;;;;6.67;91.41;102520.91;4988743;28;20014;-73
2023/04/18 01:46:46;;;;;;;20.63;13.38;;;;;;;6.69;91.74;102519.19;4987970;28;20372;-73
2023/04/18 01:49:11;;;;;;;22.70;13.45;;;;;;;6.64;91.55;102518.25;4987350;28;20034;-73
2023/04/18 01:51:37;;;;;;;16.08;12.57;;;;;;;6.54;91.05;102508.56;4989981;28;20043;-73
2023/04/18 01:54:03;;;;;;;19.75;13.10;;;;;;;6.62;91.19;102524.25;4989800;28;20038;-73
2023/04/18 01:56:29;;;;;;;19.40;13.77;;;;;;;6.57;91.27;102513.75;4989422;28;20103;-73
2023/04/18 01:58:54;;;;;;;19.83;12.80;;;;;;;6.53;91.05;102511.97;4990687;28;20167;-73
2023/04/18 02:01:20;;;;;;;19.13;13.05;;;;;;;6.53;90.43;102517.16;4990272;28;20377;-72
2023/04/18 02:03:45;;;;;;;18.48;13.18;;;;;;;6.50;91.17;102515.34;4989171;28;20026;-72
2023/04/18 02:06:10;;;;;;;19.58;12.98;;;;;;;6.47;91.57;102527.38;4989845;28;20038;-72
2023/04/18 02:08:36;;;;;;;19.10;13.70;;;;;;;6.41;91.37;102520.38;4989637;28;20434;-72
2023/04/18 02:11:01;;;;;;;20.98;13.73;;;;;;;6.39;92.86;102523.78;4988930;28;20429;-72
2023/04/18 02:13:27;;;;;;;19.52;13.15;;;;;;;6.35;92.38;102519.38;4993384;28;20091;-73
2023/04/18 02:15:52;;;;;;;20.33;13.57;;;;;;;6.29;91.78;102518.41;4993780;28;20027;-72
2023/04/18 02:18:17;;;;;;;19.05;13.13;;;;;;;6.26;92.23;102523.50;4992675;28;20030;-73
2023/04/18 02:20:43;;;;;;;21.30;12.52;;;;;;;6.23;92.27;102513.09;4993220;28;20029;-73
2023/04/18 02:23:09;;;;;;;21.05;12.98;;;;;;;6.19;92.48;102516.47;4992708;28;20050;-73
2023/04/18 02:25:34;;;;;;;19.15;12.88;;;;;;;6.13;92.42;102510.28;4993123;28;20058;-72
2023/04/18 02:28:02;;;;;;;23.50;13.27;;;;;;;6.12;93.15;102521.50;4993108;28;20022;-72
2023/04/18 02:30:27;;;;;;;20.48;13.77;;;;;;;6.03;93.58;102502.31;4992729;28;20030;-73
2023/04/18 02:32:55;;;;;;;18.63;13.05;;;;;;;6.06;93.89;102515.31;4993382;28;20036;-72
2023/04/18 02:35:21;;;;;;;17.25;13.15;;;;;;;6.03;93.46;102509.22;4993363;28;20018;-72
2023/04/18 02:37:46;;;;;;;20.58;13.68;;;;;;;5.98;92.82;102514.25;4992183;28;20033;-72
2023/04/18 02:40:12;;;;;;;17.00;12.68;;;;;;;5.93;93.12;102515.03;4993056;28;20031;-73
2023/04/18 02:42:38;;;;;;;18.38;13.20;;;;;;;5.89;93.34;102510.59;4992715;28;20039;-73
2023/04/18 02:45:03;;;;;;;18.15;13.32;;;;;;;5.80;93.48;102506.94;4992178;28;20054;-72
2023/04/18 02:47:29;;;;;;;19.17;13.38;;;;;;;5.80;94.11;102508.66;4993008;28;20033;-73
2023/04/18 02:49:54;;;;;;;18.33;13.25;;;;;;;5.78;93.89;102516.38;4992844;28;20037;-73
2023/04/18 02:52:20;;;;;;;18.00;12.55;;;;;;;5.75;94.25;102511.13;4991603;28;20042;-72
2023/04/18 02:54:45;;;;;;;23.13;13.90;;;;;;;5.76;93.81;102520.66;4989613;28;20382;-72
2023/04/18 02:57:10;;;;;;;19.55;14.00;;;;;;;5.73;94.95;102518.00;4990827;28;20037;-72
2023/04/18 02:59:36;;;;;;;19.02;13.07;;;;;;;5.69;95.53;102518.78;4992208;28;20026;-72
2023/04/18 03:02:01;;;;;;;21.88;13.02;;;;;;;5.61;94.94;102513.41;4990553;28;20481;-73
2023/04/18 03:04:26;;;;;;;18.13;12.48;;;;;;;5.56;94.41;102501.22;4991873;28;20037;-72
2023/04/18 03:06:52;;;;;;;19.63;13.45;;;;;;;5.60;95.01;102522.00;4990079;28;20382;-73
2023/04/18 03:09:17;;;;;;;19.75;13.88;;;;;;;5.53;94.36;102509.75;4991731;28;20113;-72
2023/04/18 03:11:43;;;;;;;19.50;13.00;;;;;;;5.52;95.12;102517.47;4990644;28;20113;-72
2023/04/18 03:14:08;;;;;;;20.63;12.93;;;;;;;5.51;95.65;102507.97;4991069;28;20535;-73
2023/04/18 03:16:33;;;;;;;22.90;13.52;;;;;;;5.50;95.66;102508.81;4991315;28;20521;-72
2023/04/18 03:19:00;;;;;;;21.75;13.85;;;;;;;5.47;96.05;102508.75;4991499;28;20041;-72
2023/04/18 03:21:26;;;;;;;17.55;12.68;;;;;;;5.46;95.39;102515.63;4991134;28;20103;-72
2023/04/18 03:23:52;;;;;;;17.15;13.20;;;;;;;5.43;96.16;102507.81;4987985;28;20466;-73
2023/04/18 03:26:17;;;;;;;20.65;13.77;;;;;;;5.39;95.93;102517.19;4991647;28;20034;-73
2023/04/18 03:28:43;;;;;;;19.65;12.73;;;;;;;5.38;96.26;102517.16;4990584;28;20026;-73
2023/04/18 03:31:08;;;;;;;17.38;12.85;;;;;;;5.34;96.58;102516.19;4991358;28;20039;-73
2023/04/18 03:33:33;;;;;;;17.20;12.60;;;;;;;5.30;96.17;102519.56;4990648;28;20117;-73
2023/04/18 03:35:58;;;;;;;20.52;13.27;;;;;;;5.32;95.93;102520.44;4992244;28;20033;-73
2023/04/18 03:38:24;;;;;;;17.38;13.18;;;;;;;5.26;96.49;102509.94;4989282;28;20375;-73
2023/04/18 03:40:49;;;;;;;17.83;12.98;;;;;;;5.25;97.01;102515.09;4988316;28;20026;-73
2023/04/18 03:43:14;;;;;;;19.10;13.90;;;;;;;5.20;96.79;102515.00;4990760;28;20022;-73
2023/04/18 03:45:40;;;;;;;21.55;13.65;;;;;;;5.18;96.26;102508.88;4990935;28;20027;-73
2023/04/18 03:48:06;;;;;;;17.30;13.48;;;;;;;5.17;96.84;102507.16;4989125;28;20033;-73
2023/04/18 03:50:31;;;;;;;20.17;14.07;;;;;;;5.06;97.21;102504.28;4991905;28;20404;-73
2023/04/18 03:52:57;;;;;;;17.52;13.40;;;;;;;5.03;97.06;102505.91;4989039;28;20545;-74
2023/04/18 03:55:22;;;;;;;21.73;14.48;;;;;;;5.05;96.73;102507.69;4990688;28;20035;-73
2023/04/18 03:57:47;;;;;;;21.10;14.18;;;;;;;5.03;97.45;102513.66;4990800;28;20030;-73
2023/04/18 04:00:14;;;;;;;19.23;13.73;;;;;;;5.00;97.26;102516.16;4990225;28;20018;-72
2023/04/18 04:02:39;;;;;;;18.83;12.45;;;;;;;4.99;97.42;102520.47;4988224;28;20064;-73
2023/04/18 04:05:05;;;;;;;19.40;13.20;;;;;;;4.93;97.39;102508.25;4991549;28;20431;-73
2023/04/18 04:07:31;;;;;;;18.20;13.40;;;;;;;4.91;97.33;102514.22;4991671;28;20030;-72
2023/04/18 04:10:00;;;;;;;19.42;13.38;;;;;;;4.95;97.58;102521.22;4990610;28;20057;-73
2023/04/18 04:12:26;;;;;;;17.40;12.63;;;;;;;4.84;97.69;102504.53;4992949;28;20121;-73
2023/04/18 04:14:51;;;;;;;16.95;12.73;;;;;;;4.84;97.70;102513.19;4991921;28;20105;-73
2023/04/18 04:17:17;;;;;;;20.65;13.38;;;;;;;4.80;97.59;102510.47;4991042;28;20505;-73
2023/04/18 04:19:42;;;;;;;17.80;13.00;;;;;;;4.84;97.12;102523.53;4991164;28;20039;-73
2023/04/18 04:22:08;;;;;;;17.60;12.93;;;;;;;4.81;98.17;102526.03;4991535;28;20049;-74
2023/04/18 04:24:34;;;;;;;19.70;13.50;;;;;;;4.78;98.23;102522.50;4990892;28;20027;-73
2023/04/18 04:27:00;;;;;;;18.58;13.00;;;;;;;4.75;98.41;102520.69;4991217;28;20038;-73
2023/04/18 04:29:27;;;;;;;18.83;12.93;;;;;;;4.68;98.64;102516.19;4991679;28;20424;-73
2023/04/18 04:31:53;;;;;;;18.13;13.00;;;;;;;4.71;98.65;102524.03;4990866;28;20069;-72
2023/04/18 04:34:19;;;;;;;19.35;13.57;;;;;;;4.68;99.07;102522.22;4990903;28;20043;-73
2023/04/18 04:36:45;;;;;;;20.23;13.18;;;;;;;4.68;99.15;102526.53;4989599;28;20042;-73
2023/04/18 04:39:11;;;;;;;20.30;13.68;;;;;;;4.66;99.45;102525.59;4991273;28;20014;-73
2023/04/18 04:41:38;;;;;;;18.92;12.45;;;;;;;4.66;99.28;102533.34;4991568;28;20030;-73
2023/04/18 04:44:03;;;;;;;18.58;13.23;;;;;;;4.65;99.35;102531.59;4990362;28;20030;-73
2023/04/18 04:46:29;;;;;;;20.30;12.95;;;;;;;4.59;99.56;102516.81;4991166;28;20037;-73
2023/04/18 04:48:55;;;;;;;18.17;13.38;;;;;;;4.58;99.07;102514.19;4991248;28;20568;-73
2023/04/18 04:51:21;;;;;;;19.92;12.90;;;;;;;4.55;99.58;102517.56;4977164;28;20101;-73
2023/04/18 04:53:46;;;;;;;21.23;12.93;;;;;;;4.57;99.83;102533.94;4990490;28;20133;-73
2023/04/18 04:56:12;;;;;;;19.50;12.77;;;;;;;4.58;100.00;102527.97;4990991;28;20031;-72
2023/04/18 04:58:37;;;;;;;18.63;13.00;;;;;;;4.54;99.61;102526.13;4988308;28;20019;-73
2023/04/18 05:01:03;;;;;;;20.52;13.45;;;;;;;4.54;99.14;102531.28;4990858;28;20482;-73
2023/04/18 05:03:28;;;;;;;16.75;12.63;;;;;;;4.57;98.88;102538.25;4991103;28;20041;-73
2023/04/18 05:05:53;;;;;;;19.10;12.77;;;;;;;4.49;99.71;102519.09;4990490;28;20029;-73
2023/04/18 05:08:19;;;;;;;16.00;12.90;;;;;;;4.55;99.77;102534.78;4990703;28;20037;-73
2023/04/18 05:10:44;;;;;;;19.42;13.60;;;;;;;4.57;99.67;102533.94;4990604;28;20105;-73
2023/04/18 05:13:10;;;;;;;18.38;12.68;;;;;;;4.57;99.87;102538.25;4990384;28;20519;-73
2023/04/18 05:15:35;;;;;;;21.00;12.98;;;;;;;4.60;99.71;102523.72;4990977;28;20114;-73
2023/04/18 05:18:01;;;;;;;18.48;13.07;;;;;;;4.61;99.64;102527.16;4990379;28;20030;-73
2023/04/18 05:20:26;;;;;;;17.55;12.50;;;;;;;4.64;98.84;102535.91;4989908;28;20037;-73
2023/04/18 05:22:51;;;;;;;18.05;12.45;;;;;;;4.67;98.99;102545.41;4991169;28;20133;-73
2023/04/18 05:25:17;;;;;;;17.27;12.20;;;;;;;4.64;98.92;102538.50;4990498;28;20046;-73
2023/04/18 05:27:42;;;;;;;18.20;12.90;;;;;;;4.65;98.51;102547.97;4989686;28;20022;-73
2023/04/18 05:30:08;;;;;;;23.33;13.27;;;;;;;4.65;98.52;102547.09;4990487;28;20042;-73
2023/04/18 05:32:33;;;;;;;17.90;12.98;;;;;;;4.61;97.84;102537.50;4990275;28;20018;-73
2023/04/18 05:34:58;;;;;;;22.35;13.25;;;;;;;4.68;98.79;102547.19;4989698;28;20039;-73
2023/04/18 05:37:24;;;;;;;18.08;12.48;;;;;;;4.68;98.15;102539.44;4990516;28;20015;-72
2023/04/18 05:39:49;;;;;;;18.58;12.80;;;;;;;4.75;97.65;102548.25;4990664;28;20371;-73
2023/04/18 05:42:14;;;;;;;18.55;12.30;;;;;;;4.80;97.64;102550.09;4976130;28;20101;-73
2023/04/18 05:44:40;;;;;;;18.83;12.93;;;;;;;4.99;97.23;102555.78;4990023;28;20466;-73
2023/04/18 05:47:05;;;;;;;21.40;12.45;;;;;;;5.13;95.62;102563.09;4989276;28;20029;-73
2023/04/18 05:49:31;;;;;;;17.02;12.05;;;;;;;5.25;95.36;102559.06;4989995;28;20386;-73
2023/04/18 05:51:56;;;;;;;19.15;12.77;;;;;;;5.32;94.45;102553.19;4990192;28;20042;-73
2023/04/18 05:54:23;;;;;;;19.52;11.68;;;;;;;5.39;93.42;102553.41;4989194;28;20439;-73
2023/04/18 05:56:49;;;;;;;15.35;11.82;;;;;;;5.49;92.88;102564.84;4989927;28;20042;-73
2023/04/18 05:59:15;;;;;;;19.17;13.27;;;;;;;5.57;92.83;102565.03;4990199;28;20432;-73
2023/04/18 06:01:40;;;;;;;18.95;12.25;;;;;;;5.42;92.30;102560.34;4986995;28;20113;-73
2023/04/18 06:04:07;;;;;;;19.83;12.45;;;;;;;5.58;92.95;102572.81;4988615;28;20129;-73
2023/04/18 06:06:33;;;;;;;19.25;13.70;;;;;;;5.53;93.39;102558.91;4988809;28;20046;-73
2023/04/18 06:08:58;;;;;;;17.75;12.80;;;;;;;5.70;91.96;102571.41;4987288;28;20385;-73
2023/04/18 06:11:23;;;;;;;20.13;13.15;;;;;;;5.80;91.76;102563.88;4989086;28;20030;-73
2023/04/18 06:13:48;;;;;;;17.25;13.00;;;;;;;5.81;91.69;102565.63;4987883;28;20038;-73
2023/04/18 06:16:14;;;;;;;18.42;12.70;;;;;;;5.83;92.25;102576.91;4989381;28;20109;-73
2023/04/18 06:18:39;;;;;;;18.10;12.82;;;;;;;5.79;91.44;102580.25;4989109;28;20490;-72
2023/04/18 06:21:05;;;;;;;21.38;12.70;;;;;;;5.73;92.11;102576.66;4990266;28;20023;-73
2023/04/18 06:23:30;;;;;;;20.27;13.23;;;;;;;5.66;93.38;102579.91;4985824;28;20457;-73
2023/04/18 06:25:56;;;;;;;19.27;13.35;;;;;;;5.65;93.63;102579.03;4989714;28;20022;-73
2023/04/18 06:28:22;;;;;;;22.20;13.70;;;;;;;5.79;94.37;102580.25;4990106;28;20034;-73
2023/04/18 06:30:47;;;;;;;20.30;12.82;;;;;;;6.01;93.25;102588.53;4989364;28;20480;-74
2023/04/18 06:33:12;;;;;;;19.58;12.73;;;;;;;6.09;91.93;102576.66;4989935;28;20052;-73
2023/04/18 06:35:38;;;;;;;17.60;12.95;;;;;;;6.28;93.13;102589.19;4989589;28;20023;-73
2023/04/18 06:38:03;;;;;;;21.05;13.30;;;;;;;6.42;90.97;102579.13;4989292;28;20385;-73
2023/04/18 06:40:28;;;;;;;18.20;12.25;;;;;;;6.54;90.69;102578.53;4988399;28;20080;-73
2023/04/18 06:42:54;;;;;;;17.63;13.00;;;;;;;6.69;90.87;102585.72;4985611;28;20033;-73
2023/04/18 06:45:19;;;;;;;18.65;12.25;;;;;;;6.79;90.12;102587.66;4985480;28;20030;-73
2023/04/18 06:47:46;;;;;;;18.27;12.93;;;;;;;6.92;90.30;102575.81;4989378;28;20492;-73
2023/04/18 06:50:12;;;;;;;16.80;12.00;;;;;;;7.11;89.25;102590.00;4989623;28;20030;-72
2023/04/18 06:52:41;;;;;;;20.38;12.52;;;;;;;7.24;89.15;102590.25;4988806;28;20466;-73
2023/04/18 06:55:07;;;;;;;15.85;11.20;;;;;;;7.39;87.96;102592.25;4989426;28;20042;-73
2023/04/18 06:57:33;;;;;;;15.52;11.45;;;;;;;7.36;87.00;102573.16;4988440;28;20444;-73
2023/04/18 06:59:58;;;;;;;18.40;11.52;;;;;;;7.55;87.38;102590.78;4991525;28;20105;-73
2023/04/18 07:02:24;;;;;;;17.08;11.50;;;;;;;7.66;87.68;102591.84;4992731;28;20018;-73
2023/04/18 07:04:49;;;;;;;15.68;11.85;;;;;;;7.72;85.21;102591.09;4991794;28;20026;-73
2023/04/18 07:07:14;;;;;;;15.95;11.82;;;;;;;7.76;84.52;102587.69;4999586;28;20025;-72
2023/04/18 07:09:40;;;;;;;15.35;11.52;;;;;;;7.87;85.58;102596.50;5011993;28;20430;-73
2023/04/18 07:12:05;;;;;;;19.73;11.23;;;;;;;7.93;84.76;102591.41;5011339;28;20058;-73
2023/04/18 07:14:30;;;;;;;16.92;11.15;;;;;;;7.95;83.61;102594.03;5012028;28;20484;-73
2023/04/18 07:16:56;;;;;;;16.27;11.77;;;;;;;8.01;85.81;102603.63;4998602;28;20092;-73
2023/04/18 07:19:22;;;;;;;14.25;10.82;;;;;;;7.99;84.77;102593.22;4984572;28;20030;-72
2023/04/18 07:21:47;;;;;;;15.93;10.73;;;;;;;8.06;84.73;102599.38;4990137;28;20108;-72
2023/04/18 07:24:12;;;;;;;18.42;11.57;;;;;;;7.96;84.39;102570.66;4999731;28;20006;-73
2023/04/18 07:26:38;;;;;;;15.00;11.60;;;;;;;8.21;85.21;102597.91;4995551;28;20034;-73
2023/04/18 07:29:06;;;;;;;14.05;11.07;;;;;;;8.38;84.10;102594.69;5001206;28;20026;-73
2023/04/18 07:31:31;;;;;;;14.63;11.55;;;;;;;8.46;84.20;102600.84;5011850;28;20037;-72
2023/04/18 07:33:57;;;;;;;16.48;12.05;;;;;;;8.43;83.31;102598.19;5010930;28;20409;-73
2023/04/18 07:36:22;;;;;;;15.25;10.50;;;;;;;8.26;84.55;102599.69;5011984;28;20026;-73
2023/04/18 07:38:48;;;;;;;15.57;10.93;;;;;;;8.25;85.87;102609.19;4991857;28;20117;-73
2023/04/18 07:41:13;;;;;;;20.70;12.07;;;;;;;8.24;84.87;102610.06;4996708;28;20030;-73
2023/04/18 07:43:39;;;;;;;14.80;11.15;;;;;;;8.36;85.49;102607.59;5011387;28;20030;-73
2023/04/18 07:46:05;;;;;;;17.92;11.07;;;;;;;8.31;86.17;102605.81;5011721;28;20486;-73
2023/04/18 07:48:31;;;;;;;15.55;11.15;;;;;;;8.38;86.43;102612.88;5011160;28;20026;-73
2023/04/18 07:50:56;;;;;;;13.77;11.25;;;;;;;8.42;85.36;102606.88;5004930;28;20382;-73
2023/04/18 07:53:21;;;;;;;15.18;10.32;;;;;;;8.51;85.73;102609.59;4997639;28;20375;-73
2023/04/18 07:55:47;;;;;;;13.77;10.40;;;;;;;8.57;83.97;102607.06;5005068;28;20026;-73
2023/04/18 07:58:12;;;;;;;15.05;10.80;;;;;;;8.67;85.26;102605.47;4993194;28;20033;-73
2023/04/18 08:00:38;;;;;;;15.00;11.25;;;;;;;8.87;85.28;102609.19;4989667;28;20087;-73
2023/04/18 08:03:06;;;;;;;15.45;10.50;;;;;;;9.10;83.93;102608.56;4991755;28;20019;-72
2023/04/18 08:05:31;;;;;;;13.10;10.63;;;;;;;9.22;82.59;102615.63;4989456;28;20113;-72
2023/04/18 08:07:57;;;;;;;13.73;10.75;;;;;;;9.11;80.68;102605.97;4985492;28;20390;-72
2023/04/18 08:10:22;;;;;;;13.48;10.25;;;;;;;9.11;82.53;102621.56;4990542;28;20487;-73
2023/04/18 08:12:47;;;;;;;14.30;11.10;;;;;;;9.12;82.06;102612.03;4989313;28;20033;-73
2023/04/18 08:15:12;;;;;;;14.15;10.40;;;;;;;9.17;82.04;102615.56;4989251;28;20026;-72
2023/04/18 08:17:38;;;;;;;14.90;10.88;;;;;;;9.23;82.56;102617.38;4989712;28;20018;-73
2023/04/18 08:20:06;;;;;;;13.55;10.50;;;;;;;9.37;80.61;102623.59;4991579;28;20050;-72
2023/04/18 08:22:32;;;;;;;14.63;10.68;;;;;;;9.42;79.93;102634.94;4990954;28;20026;-73
2023/04/18 08:24:59;;;;;;;15.20;10.65;;;;;;;9.48;78.98;102616.78;4988821;28;21873;-73
2023/04/18 08:27:25;;;;;;;15.13;10.93;;;;;;;9.54;80.57;102622.00;4987663;28;20037;-73
2023/04/18 08:29:50;;;;;;;14.10;11.75;;;;;;;9.60;77.54;102627.28;4990190;28;20031;-72
2023/04/18 08:32:15;;;;;;;14.32;11.38;;;;;;;9.63;79.96;102626.44;4991037;28;20031;-73
2023/04/18 08:34:41;;;;;;;13.30;10.60;;;;;;;9.72;78.35;102621.31;4991000;28;20022;-72
2023/04/18 08:37:06;;;;;;;14.00;11.05;;;;;;;9.73;78.04;102620.44;4985421;28;20026;-72
2023/04/18 08:39:35;;;;;;;15.02;11.80;;;;;;;9.79;80.03;102622.22;4988951;28;20034;-72
2023/04/18 08:42:00;;;;;;;15.18;10.57;;;;;;;9.91;77.49;102626.66;4991097;28;20769;-73
2023/04/18 08:44:29;;;;;;;13.23;10.65;;;;;;;10.01;77.80;102618.06;4991233;28;20021;-73
2023/04/18 08:46:56;;;;;;;14.57;11.07;;;;;;;10.19;76.72;102622.53;4986876;28;20031;-72
2023/04/18 08:49:23;;;;;;;14.60;10.52;;;;;;;10.24;76.11;102616.50;4990795;28;20022;-73
2023/04/18 08:51:56;;;;;;;14.35;10.50;;;;;;;10.36;76.79;102618.31;4988112;28;20105;-73
2023/04/18 08:54:24;;;;;;;17.30;11.32;;;;;;;10.59;76.73;102614.94;5020939;28;22047;-73
2023/04/18 08:57:06;;;;;;;14.27;10.80;;;;;;;10.86;75.48;102620.31;4988715;28;20441;-73
2023/04/18 08:59:34;;;;;;;12.95;10.65;;;;;;;11.15;74.30;102598.63;4989214;28;20045;-73
2023/04/18 09:02:00;;;;;;;15.90;11.02;;;;;;;11.42;73.06;102592.59;4988997;28;20042;-73
2023/04/18 09:04:35;;;;;;;17.20;11.60;;;;;;;11.86;74.64;102597.84;4979222;28;20072;-73
2023/04/18 09:07:04;;;;;;;15.90;10.98;;;;;;;12.00;69.56;102597.84;4986597;28;20038;-73
2023/04/18 09:09:47;;;;;;;17.05;12.30;;;;;;;11.72;69.00;102605.66;4986344;28;20039;-73
2023/04/18 09:12:21;;;;;;;15.00;11.05;;;;;;;11.32;69.26;102607.38;4990314;28;20377;-73
2023/04/18 09:14:51;;;;;;;17.75;11.70;;;;;;;11.35;71.71;102601.28;4990603;28;20022;-73
2023/04/18 09:17:34;;;;;;;16.17;11.15;;;;;;;11.60;71.26;102583.88;4990690;28;20026;-73
2023/04/18 09:20:01;;;;;;;13.48;11.40;;;;;;;11.58;67.88;102591.72;4989891;28;20066;-73
2023/04/18 09:22:51;;;;;;;14.35;11.48;;;;;;;11.65;68.88;102588.25;4990157;28;20019;-73
2023/04/18 09:25:45;;;;;;;14.55;12.18;;;;;;;11.80;67.28;102576.91;4989951;28;20026;-73
2023/04/18 09:28:29;;;;;;;14.38;10.30;;;;;;;11.72;65.24;102594.34;4991565;28;20034;-73
2023/04/18 09:31:10;;;;;;;15.23;10.50;;;;;;;11.54;66.06;102591.72;4989978;28;20027;-73
2023/04/18 09:33:36;;;;;;;14.35;10.70;;;;;;;11.56;66.13;102595.19;4989823;28;20022;-72
2023/04/18 09:36:27;;;;;;;15.20;10.93;;;;;;;11.60;66.90;102581.28;4990010;28;20186;-72
2023/04/18 09:38:53;;;;;;;13.43;9.95;;;;;;;11.61;66.96;102602.19;4982402;28;20031;-73
2023/04/18 09:41:19;;;;;;;11.98;9.68;;;;;;;11.68;66.38;102582.16;4990025;28;20029;-73
2023/04/18 09:43:45;;;;;;;11.55;9.23;;;;;;;11.79;66.19;102588.22;4977299;28;20027;-73
2023/04/18 09:46:11;;;;;;;15.50;10.05;;;;;;;11.72;65.72;102596.94;4988815;28;20109;-73
2023/04/18 09:48:37;;;;;;;12.27;9.82;;;;;;;11.59;64.60;102571.69;4990266;28;20118;-73
2023/04/18 09:51:06;;;;;;;12.52;9.40;;;;;;;11.76;65.17;102589.97;4989967;28;20023;-73
2023/04/18 09:53:33;;;;;;;14.25;9.65;;;;;;;11.95;63.96;102590.00;4989427;28;20129;-73
2023/04/18 09:55:59;;;;;;;11.38;9.48;;;;;;;12.06;64.47;102582.13;4978138;28;20084;-73
2023/04/18 09:58:30;;;;;;;14.57;9.73;;;;;;;12.13;64.12;102575.13;4990160;28;20030;-73
2023/04/18 10:00:56;;;;;;;12.02;8.82;;;;;;;12.18;62.75;102586.47;4989190;28;20110;-73
2023/04/18 10:03:27;;;;;;;12.65;9.15;;;;;;;12.18;62.35;102570.78;4989956;28;20060;-73
2023/04/18 10:05:53;;;;;;;15.55;9.55;;;;;;;12.40;62.44;102576.81;4990013;28;20019;-73
2023/04/18 10:08:19;;;;;;;15.45;9.88;;;;;;;12.49;62.43;102579.41;4989157;28;20445;-73
2023/04/18 10:10:45;;;;;;;14.10;9.05;;;;;;;12.46;63.22;102570.69;4989731;28;20040;-73
2023/04/18 10:13:13;;;;;;;11.30;8.70;;;;;;;12.49;63.00;102583.75;4989953;28;20026;-73
2023/04/18 10:15:38;;;;;;;10.38;8.50;;;;;;;12.48;60.50;102580.25;4989235;28;20034;-73
2023/04/18 10:18:15;;;;;;;10.60;7.93;;;;;;;12.59;61.34;102588.97;4989877;28;20060;-73
2023/04/18 10:20:40;;;;;;;10.43;8.00;;;;;;;12.61;60.96;102581.09;4989963;28;20027;-73
2023/04/18 10:23:35;;;;;;;10.80;7.18;;;;;;;12.63;60.19;102589.81;4989320;28;20378;-73
2023/04/18 10:26:03;;;;;;;;;;;;;;;12.76;61.74;102580.16;4989941;28;20034;-73
2023/04/18 10:28:53;;;;;;;12.32;6.90;;;;;;;12.70;60.70;102591.53;4989301;28;19975;-73
2023/04/18 10:31:21;;;;;;;11.98;6.43;;;;;;;12.59;60.04;102582.88;4975092;28;20506;-73
2023/04/18 10:33:48;;;;;;;10.77;6.68;;;;;;;12.54;59.61;102585.47;4984861;28;20030;-72
2023/04/18 10:36:16;;;;;;;8.93;6.63;;;;;;;12.53;59.76;102577.66;4992795;28;20037;-73
2023/04/18 10:38:54;;;;;;;7.25;6.20;;;;;;;12.57;57.93;102584.59;4992509;28;20072;-74
2023/04/18 10:41:28;;;;;;;9.82;6.38;;;;;;;12.45;57.04;102579.41;4991112;28;20034;-73
2023/04/18 10:44:08;;;;;;;;;;;;;;;12.60;58.01;102589.81;4995748;28;20034;-73
2023/04/18 10:47:02;;;;;;;8.10;6.60;;;;;;;12.74;55.84;102582.78;5004096;28;19957;-73
2023/04/18 10:49:27;;;;;;;;;;;;;;;13.07;57.87;102588.72;4999957;28;20054;-73
2023/04/18 10:51:57;;;;;;;9.07;6.78;;;;;;;13.05;57.34;102588.72;4992632;28;19918;-74
2023/04/18 10:54:36;;;;;;;8.20;6.43;;;;;;;13.19;57.36;102580.78;5004678;28;20057;-73
2023/04/18 10:57:03;;;;;;;7.43;6.35;;;;;;;13.47;57.30;102580.59;4994826;28;20077;-73
2023/04/18 10:59:30;;;;;;;8.20;6.80;;;;;;;13.60;56.81;102587.47;5003834;28;20020;-73
2023/04/18 11:02:09;;;;;;;10.57;6.72;;;;;;;13.61;56.48;102580.50;5004230;28;20027;-73
2023/04/18 11:04:35;;;;;;;9.57;7.65;;;;;;;13.34;54.30;102583.34;4992308;28;20114;-73
2023/04/18 11:07:03;;;;;;;8.70;7.47;;;;;;;13.10;57.47;102583.44;4993362;28;20111;-73
2023/04/18 11:09:29;;;;;;;8.82;6.85;;;;;;;12.83;57.45;102576.63;4999656;28;20133;-73
2023/04/18 11:12:05;;;;;;;9.80;7.57;;;;;;;12.79;57.81;102580.16;5015343;28;20155;-73
2023/04/18 11:14:41;;;;;;;9.77;7.03;;;;;;;12.68;59.71;102582.78;4992114;28;20034;-73
2023/04/18 11:17:17;;;;;;;9.23;7.70;;;;;;;12.75;58.73;102574.06;4992609;28;20089;-74